createdAt,value
2023-03-29T00:00:11.181Z,2.42
2023-03-29T00:02:39.174Z,2.30
2023-03-29T00:05:07.998Z,2.41
2023-03-29T00:07:35.906Z,2.06
2023-03-29T00:10:05.456Z,2.07
2023-03-29T00:12:34.850Z,2.27
2023-03-29T00:15:03.045Z,2.36
2023-03-29T00:17:31.254Z,2.28
2023-03-29T00:19:59.453Z,2.21
2023-03-29T00:22:27.458Z,2.26
2023-03-29T00:24:55.782Z,2.35
2023-03-29T00:27:23.821Z,2.27
2023-03-29T00:29:53.116Z,2.30
2023-03-29T00:32:21.051Z,2.38
2023-03-29T00:34:50.930Z,2.34
2023-03-29T00:37:19.942Z,2.37
2023-03-29T00:39:48.305Z,2.34
2023-03-29T00:42:18.634Z,2.24
2023-03-29T00:45:08.780Z,2.14
2023-03-29T00:47:41.666Z,2.34
2023-03-29T00:50:15.836Z,2.24
2023-03-29T00:52:47.552Z,2.34
2023-03-29T00:55:21.777Z,2.25
2023-03-29T00:57:52.209Z,2.20
2023-03-29T01:00:25.551Z,2.24
2023-03-29T01:02:59.562Z,2.21
2023-03-29T01:05:32.226Z,2.09
2023-03-29T01:08:04.309Z,1.92
2023-03-29T01:10:36.907Z,2.03
2023-03-29T01:13:09.509Z,2.15
2023-03-29T01:15:42.310Z,2.04
2023-03-29T01:18:11.221Z,1.90
2023-03-29T01:21:02.927Z,2.11
2023-03-29T01:23:47.400Z,1.98
2023-03-29T01:26:23.356Z,1.91
2023-03-29T01:28:56.863Z,2.06
2023-03-29T01:31:28.778Z,1.88
2023-03-29T01:34:03.664Z,1.77
2023-03-29T01:36:39.739Z,1.80
2023-03-29T01:39:08.594Z,1.88
2023-03-29T01:41:45.231Z,1.45
2023-03-29T01:44:18.972Z,1.75
2023-03-29T01:46:48.725Z,1.55
2023-03-29T01:49:25.093Z,1.55
2023-03-29T01:51:58.435Z,1.48
2023-03-29T01:54:32.592Z,1.29
2023-03-29T01:57:04.001Z,1.56
2023-03-29T01:59:37.256Z,1.75
2023-03-29T02:02:11.339Z,1.72
2023-03-29T02:04:44.768Z,1.67
2023-03-29T02:07:13.858Z,1.80
2023-03-29T02:09:42.756Z,1.71
2023-03-29T02:12:12.664Z,1.88
2023-03-29T02:14:42.000Z,1.89
2023-03-29T02:17:20.697Z,1.86
2023-03-29T02:19:51.506Z,1.77
2023-03-29T02:22:24.945Z,1.66
2023-03-29T02:24:59.313Z,1.63
2023-03-29T02:27:28.113Z,1.47
2023-03-29T02:29:57.721Z,1.53
2023-03-29T02:32:33.572Z,1.58
2023-03-29T02:35:06.702Z,1.62
2023-03-29T02:37:40.586Z,1.63
2023-03-29T02:40:09.930Z,1.54
2023-03-29T02:42:38.464Z,1.42
2023-03-29T02:45:11.380Z,1.47
2023-03-29T02:47:44.453Z,1.54
2023-03-29T02:50:13.190Z,1.65
2023-03-29T02:52:48.626Z,1.57
2023-03-29T02:55:20.292Z,1.58
2023-03-29T02:57:48.189Z,1.49
2023-03-29T03:00:19.914Z,1.61
2023-03-29T03:02:49.055Z,1.62
2023-03-29T03:05:17.606Z,1.48
2023-03-29T03:07:46.205Z,1.56
2023-03-29T03:10:14.179Z,1.48
2023-03-29T03:12:42.080Z,1.51
2023-03-29T03:15:10.597Z,1.38
2023-03-29T03:17:40.526Z,1.47
2023-03-29T03:20:13.132Z,1.38
2023-03-29T03:22:42.617Z,1.23
2023-03-29T03:25:14.002Z,1.37
2023-03-29T03:27:42.075Z,1.24
2023-03-29T03:30:11.292Z,1.17
2023-03-29T03:32:41.486Z,1.29
2023-03-29T03:35:10.031Z,1.17
2023-03-29T03:37:38.402Z,1.04
2023-03-29T03:40:11.949Z,1.02
2023-03-29T03:42:40.357Z,1.15
2023-03-29T03:45:09.870Z,1.13
2023-03-29T03:47:38.547Z,1.09
2023-03-29T03:50:09.704Z,1.09
2023-03-29T03:52:37.702Z,1.07
2023-03-29T03:55:06.314Z,1.09
2023-03-29T03:57:37.470Z,1.06
2023-03-29T04:00:19.351Z,1.04
2023-03-29T04:02:48.726Z,1.15
2023-03-29T04:05:18.322Z,1.22
2023-03-29T04:07:46.474Z,1.32
2023-03-29T04:10:14.557Z,1.30
2023-03-29T04:12:42.576Z,1.32
2023-03-29T04:15:12.283Z,1.29
2023-03-29T04:17:40.630Z,1.39
2023-03-29T04:20:12.853Z,1.29
2023-03-29T04:22:42.371Z,1.31
2023-03-29T04:25:11.761Z,1.28
2023-03-29T04:27:39.986Z,1.32
2023-03-29T04:30:09.581Z,1.51
2023-03-29T04:32:37.829Z,1.39
2023-03-29T04:35:06.646Z,1.28
2023-03-29T04:37:35.201Z,1.19
2023-03-29T04:40:09.841Z,1.20
2023-03-29T04:42:38.165Z,1.42
2023-03-29T04:45:08.052Z,1.51
2023-03-29T04:47:39.666Z,1.59
2023-03-29T04:50:09.254Z,1.82
2023-03-29T04:52:37.275Z,1.93
2023-03-29T04:55:08.225Z,2.22
2023-03-29T04:57:36.188Z,2.15
2023-03-29T05:00:13.792Z,2.28
2023-03-29T05:02:42.454Z,2.36
2023-03-29T05:05:11.556Z,2.40
2023-03-29T05:07:39.667Z,2.39
2023-03-29T05:10:10.279Z,2.63
2023-03-29T05:12:38.506Z,2.80
2023-03-29T05:15:08.172Z,2.85
2023-03-29T05:17:36.476Z,2.77
2023-03-29T05:20:09.317Z,3.10
2023-03-29T05:22:38.527Z,3.23
2023-03-29T05:25:11.085Z,3.27
2023-03-29T05:27:38.963Z,3.27
2023-03-29T05:30:09.000Z,3.57
2023-03-29T05:32:38.206Z,3.65
2023-03-29T05:35:06.764Z,4.30
2023-03-29T05:37:34.886Z,5.15
2023-03-29T05:40:07.118Z,5.89
2023-03-29T05:42:36.793Z,6.05
2023-03-29T05:45:05.478Z,6.24
2023-03-29T05:47:33.394Z,6.16
2023-03-29T05:50:01.425Z,5.96
2023-03-29T05:52:29.291Z,6.15
2023-03-29T05:54:57.432Z,6.15
2023-03-29T05:57:25.537Z,5.74
2023-03-29T05:59:54.881Z,5.85
2023-03-29T06:02:22.987Z,6.12
2023-03-29T06:04:51.787Z,6.43
2023-03-29T06:07:19.829Z,6.29
2023-03-29T06:09:47.722Z,6.54
2023-03-29T06:12:16.208Z,5.85
2023-03-29T06:14:44.165Z,5.38
2023-03-29T06:17:13.704Z,5.63
2023-03-29T06:19:41.992Z,5.79
2023-03-29T06:22:10.129Z,5.43
2023-03-29T06:24:38.076Z,5.48
2023-03-29T06:27:06.101Z,5.61
2023-03-29T06:29:34.022Z,5.45
2023-03-29T06:32:02.198Z,6.06
2023-03-29T06:34:32.490Z,5.67
2023-03-29T06:37:00.428Z,5.93
2023-03-29T06:39:28.344Z,6.39
2023-03-29T06:41:56.992Z,6.93
2023-03-29T06:44:25.633Z,6.98
2023-03-29T06:46:53.692Z,7.53
2023-03-29T06:49:21.790Z,7.84
2023-03-29T06:51:51.425Z,6.45
2023-03-29T06:54:21.123Z,6.69
2023-03-29T06:56:50.289Z,7.31
2023-03-29T06:59:18.331Z,7.44
2023-03-29T07:01:47.345Z,7.50
2023-03-29T07:04:15.926Z,7.58
2023-03-29T07:06:48.428Z,7.38
2023-03-29T07:09:19.589Z,7.56
2023-03-29T07:11:47.582Z,8.14
2023-03-29T07:14:15.884Z,7.62
2023-03-29T07:16:47.352Z,8.04
2023-03-29T07:19:15.591Z,8.20
2023-03-29T07:21:43.728Z,8.07
2023-03-29T07:24:12.933Z,8.50
2023-03-29T07:26:52.312Z,8.69
2023-03-29T07:29:29.654Z,7.59
2023-03-29T07:31:58.046Z,7.75
2023-03-29T07:34:27.274Z,8.36
2023-03-29T07:36:55.516Z,9.08
2023-03-29T07:39:24.185Z,8.29
2023-03-29T07:41:53.822Z,8.14
2023-03-29T07:44:23.462Z,9.34
2023-03-29T07:46:51.417Z,9.00
2023-03-29T07:49:21.006Z,9.59
2023-03-29T07:51:50.442Z,8.79
2023-03-29T07:54:19.016Z,9.49
2023-03-29T07:56:47.759Z,9.87
2023-03-29T07:59:17.651Z,8.85
2023-03-29T08:01:45.999Z,9.49
2023-03-29T08:04:14.071Z,9.54
2023-03-29T08:06:42.066Z,9.66
2023-03-29T08:09:10.089Z,9.09
2023-03-29T08:11:39.785Z,9.55
2023-03-29T08:14:10.233Z,9.60
2023-03-29T08:16:39.818Z,9.77
2023-03-29T08:19:08.351Z,9.12
2023-03-29T08:21:36.501Z,8.28
2023-03-29T08:24:04.824Z,8.10
2023-03-29T08:26:33.220Z,8.36
2023-03-29T08:29:01.348Z,8.27
2023-03-29T08:31:29.686Z,7.77
2023-03-29T08:33:59.207Z,8.55
2023-03-29T08:36:27.747Z,8.86
2023-03-29T08:38:55.710Z,9.06
2023-03-29T08:41:37.973Z,9.03
2023-03-29T08:44:18.095Z,9.26
2023-03-29T08:46:53.360Z,9.91
2023-03-29T08:49:23.945Z,10.29
2023-03-29T08:51:56.758Z,10.91
2023-03-29T08:54:27.451Z,10.35
2023-03-29T08:57:03.210Z,9.26
2023-03-29T08:59:34.701Z,10.66
2023-03-29T09:02:06.011Z,10.06
2023-03-29T09:04:37.834Z,9.14
2023-03-29T09:07:10.893Z,10.27
2023-03-29T09:09:39.086Z,11.10
2023-03-29T09:12:20.793Z,11.37
2023-03-29T09:15:00.909Z,11.64
2023-03-29T09:17:49.798Z,11.65
2023-03-29T09:20:28.715Z,11.40
2023-03-29T09:23:07.861Z,10.27
2023-03-29T09:25:53.485Z,10.19
2023-03-29T09:28:29.832Z,10.06
2023-03-29T09:31:05.178Z,9.68
2023-03-29T09:33:42.895Z,10.88
2023-03-29T09:36:18.341Z,10.74
2023-03-29T09:38:51.032Z,9.60
2023-03-29T09:41:26.664Z,9.29
2023-03-29T09:43:58.344Z,9.72
2023-03-29T09:46:35.355Z,9.42
2023-03-29T09:49:11.404Z,10.32
2023-03-29T09:51:43.109Z,10.42
2023-03-29T09:54:13.023Z,10.07
2023-03-29T09:56:41.525Z,9.98
2023-03-29T09:59:12.609Z,9.46
2023-03-29T10:01:42.586Z,8.61
2023-03-29T10:04:12.043Z,9.17
2023-03-29T10:06:49.522Z,9.55
2023-03-29T10:09:20.931Z,9.84
2023-03-29T10:11:51.052Z,9.82
2023-03-29T10:14:21.437Z,9.69
2023-03-29T10:16:56.920Z,9.77
2023-03-29T10:19:28.536Z,9.27
2023-03-29T10:22:01.235Z,8.90
2023-03-29T10:24:29.436Z,9.70
2023-03-29T10:27:01.235Z,9.54
2023-03-29T10:29:37.589Z,9.46
2023-03-29T10:32:15.565Z,9.18
2023-03-29T10:34:44.411Z,9.61
2023-03-29T10:37:16.894Z,8.88
2023-03-29T10:39:44.938Z,9.03
2023-03-29T10:42:15.934Z,8.80
2023-03-29T10:44:44.410Z,9.11
2023-03-29T10:47:16.878Z,9.75
2023-03-29T10:49:48.058Z,9.68
2023-03-29T10:52:18.486Z,9.65
2023-03-29T10:54:47.514Z,10.06
2023-03-29T10:57:22.784Z,9.18
2023-03-29T10:59:59.248Z,9.29
2023-03-29T11:02:49.233Z,9.70
2023-03-29T11:05:31.270Z,10.20
2023-03-29T11:08:29.103Z,10.29
2023-03-29T11:11:12.172Z,10.01
2023-03-29T11:13:47.797Z,10.07
2023-03-29T11:16:27.086Z,9.83
2023-03-29T11:19:12.512Z,9.93
2023-03-29T11:21:47.479Z,9.60
2023-03-29T11:24:49.147Z,10.19
2023-03-29T11:27:27.413Z,10.87
2023-03-29T11:30:06.515Z,11.17
2023-03-29T11:32:42.393Z,10.86
2023-03-29T11:35:30.644Z,11.01
2023-03-29T11:38:03.224Z,10.34
2023-03-29T11:40:43.464Z,10.17
2023-03-29T11:43:15.613Z,10.38
2023-03-29T11:45:52.581Z,10.19
2023-03-29T11:48:23.628Z,9.92
2023-03-29T11:50:58.073Z,10.19
2023-03-29T11:53:31.320Z,9.88
2023-03-29T11:56:07.306Z,9.59
2023-03-29T11:58:40.860Z,9.71
2023-03-29T12:01:14.009Z,10.04
2023-03-29T12:03:47.544Z,10.24
2023-03-29T12:06:21.695Z,10.05
2023-03-29T12:08:55.006Z,10.33
2023-03-29T12:11:31.216Z,10.46
2023-03-29T12:14:05.140Z,10.57
2023-03-29T12:16:39.052Z,10.53
2023-03-29T12:19:17.278Z,10.23
2023-03-29T12:21:48.479Z,10.33
2023-03-29T12:24:22.647Z,10.37
2023-03-29T12:27:05.267Z,10.12
2023-03-29T12:29:49.706Z,10.52
2023-03-29T12:32:35.928Z,10.67
2023-03-29T12:35:28.535Z,10.98
2023-03-29T12:38:07.694Z,10.69
2023-03-29T12:40:43.272Z,10.61
2023-03-29T12:43:21.199Z,10.42
2023-03-29T12:45:51.094Z,10.83
2023-03-29T12:48:23.295Z,10.56
2023-03-29T12:50:53.952Z,10.51
2023-03-29T12:53:25.695Z,10.46
2023-03-29T12:56:09.884Z,10.45
2023-03-29T12:59:18.682Z,10.50
2023-03-29T13:02:00.009Z,10.59
2023-03-29T13:04:49.333Z,11.03
2023-03-29T13:07:31.174Z,10.80
2023-03-29T13:10:01.490Z,10.99
2023-03-29T13:12:33.560Z,11.18
2023-03-29T13:15:07.023Z,11.18
2023-03-29T13:17:48.212Z,10.85
2023-03-29T13:20:30.442Z,11.15
2023-03-29T13:23:17.490Z,11.23
2023-03-29T13:26:16.928Z,10.92
2023-03-29T13:29:01.356Z,11.27
2023-03-29T13:31:37.336Z,11.13
2023-03-29T13:34:12.874Z,11.38
2023-03-29T13:36:59.004Z,10.94
2023-03-29T13:39:32.901Z,11.02
2023-03-29T13:42:17.963Z,10.81
2023-03-29T13:44:49.204Z,10.93
2023-03-29T13:47:43.171Z,10.55
2023-03-29T13:50:18.885Z,10.51
2023-03-29T13:53:00.663Z,10.73
2023-03-29T13:55:34.410Z,10.81
2023-03-29T13:58:13.432Z,10.62
2023-03-29T14:00:48.348Z,10.64
2023-03-29T14:03:19.763Z,10.61
2023-03-29T14:05:51.392Z,10.65
2023-03-29T14:08:25.575Z,10.51
2023-03-29T14:10:54.810Z,10.37
2023-03-29T14:13:26.987Z,10.33
2023-03-29T14:15:58.698Z,10.31
2023-03-29T14:18:33.284Z,10.27
2023-03-29T14:21:02.697Z,10.33
2023-03-29T14:23:33.331Z,10.36
2023-03-29T14:26:07.804Z,10.46
2023-03-29T14:28:35.863Z,10.56
2023-03-29T14:31:03.809Z,10.41
2023-03-29T14:33:34.715Z,10.47
2023-03-29T14:36:05.133Z,10.52
2023-03-29T14:38:33.693Z,10.49
2023-03-29T14:41:03.068Z,10.41
2023-03-29T14:43:32.810Z,10.44
2023-03-29T14:46:03.893Z,10.53
2023-03-29T14:48:34.958Z,10.60
2023-03-29T14:51:04.616Z,10.82
2023-03-29T14:53:34.482Z,10.69
2023-03-29T14:56:02.762Z,10.52
2023-03-29T14:58:33.985Z,10.49
2023-03-29T15:01:07.091Z,10.29
2023-03-29T15:03:46.104Z,10.35
2023-03-29T15:06:15.121Z,10.38
2023-03-29T15:08:54.412Z,10.41
2023-03-29T15:11:32.255Z,10.45
2023-03-29T15:14:05.180Z,10.41
2023-03-29T15:16:34.573Z,10.31
2023-03-29T15:19:04.509Z,10.46
2023-03-29T15:21:35.110Z,10.19
2023-03-29T15:24:04.457Z,10.27
2023-03-29T15:26:34.502Z,10.29
2023-03-29T15:29:08.187Z,10.22
2023-03-29T15:31:38.946Z,10.24
2023-03-29T15:34:11.706Z,10.26
2023-03-29T15:36:42.540Z,10.17
2023-03-29T15:39:13.331Z,10.07
2023-03-29T15:41:41.478Z,9.97
2023-03-29T15:44:09.527Z,10.04
2023-03-29T15:46:37.730Z,10.01
2023-03-29T15:49:06.037Z,9.88
2023-03-29T15:51:35.389Z,9.78
2023-03-29T15:54:03.389Z,9.67
2023-03-29T15:56:33.737Z,9.64
2023-03-29T15:59:01.718Z,9.63
2023-03-29T16:01:35.300Z,9.44
2023-03-29T16:04:04.140Z,9.40
2023-03-29T16:06:32.572Z,9.17
2023-03-29T16:09:02.101Z,9.33
2023-03-29T16:11:30.081Z,9.25
2023-03-29T16:13:58.652Z,9.25
2023-03-29T16:16:27.197Z,9.23
2023-03-29T16:18:55.221Z,9.14
2023-03-29T16:21:24.575Z,9.07
2023-03-29T16:23:52.608Z,9.02
2023-03-29T16:26:22.338Z,9.02
2023-03-29T16:28:50.232Z,8.97
2023-03-29T16:31:18.356Z,8.90
2023-03-29T16:33:46.381Z,8.79
2023-03-29T16:36:15.305Z,8.72
2023-03-29T16:38:43.285Z,8.65
2023-03-29T16:41:15.477Z,8.52
2023-03-29T16:43:45.207Z,8.58
2023-03-29T16:46:13.384Z,8.52
2023-03-29T16:48:41.468Z,8.53
2023-03-29T16:51:10.948Z,8.50
2023-03-29T16:53:38.988Z,8.49
2023-03-29T16:56:07.964Z,8.47
2023-03-29T16:58:36.270Z,8.43
2023-03-29T17:01:13.405Z,8.61
2023-03-29T17:03:41.861Z,8.62
2023-03-29T17:06:11.308Z,8.70
2023-03-29T17:08:39.636Z,8.63
2023-03-29T17:11:08.026Z,8.57
2023-03-29T17:13:37.535Z,8.58
2023-03-29T17:16:06.626Z,8.55
2023-03-29T17:18:36.731Z,8.31
2023-03-29T17:21:05.157Z,8.51
2023-03-29T17:23:33.031Z,8.59
2023-03-29T17:26:01.042Z,8.59
2023-03-29T17:28:29.373Z,8.54
2023-03-29T17:30:57.431Z,8.42
2023-03-29T17:33:26.356Z,8.46
2023-03-29T17:35:56.060Z,8.37
2023-03-29T17:38:24.077Z,8.27
2023-03-29T17:40:55.654Z,8.25
2023-03-29T17:43:24.031Z,8.43
2023-03-29T17:45:53.111Z,8.33
2023-03-29T17:48:21.300Z,8.25
2023-03-29T17:50:49.276Z,8.34
2023-03-29T17:53:18.544Z,8.17
2023-03-29T17:55:46.912Z,8.08
2023-03-29T17:58:15.243Z,8.14
2023-03-29T18:00:44.206Z,8.20
2023-03-29T18:03:12.489Z,8.12
2023-03-29T18:05:40.459Z,8.06
2023-03-29T18:08:09.206Z,7.97
2023-03-29T18:10:39.966Z,7.93
2023-03-29T18:13:11.390Z,7.71
2023-03-29T18:15:39.381Z,7.66
2023-03-29T18:18:07.469Z,7.78
2023-03-29T18:20:35.357Z,7.72
2023-03-29T18:23:03.334Z,7.63
2023-03-29T18:25:31.234Z,7.76
2023-03-29T18:28:00.584Z,7.75
2023-03-29T18:30:28.545Z,7.59
2023-03-29T18:32:56.599Z,7.46
2023-03-29T18:35:24.536Z,7.24
2023-03-29T18:37:52.692Z,7.44
2023-03-29T18:40:24.834Z,7.29
2023-03-29T18:42:52.990Z,7.26
2023-03-29T18:45:22.376Z,7.27
2023-03-29T18:47:52.399Z,7.12
2023-03-29T18:50:20.514Z,7.12
2023-03-29T18:52:48.439Z,7.05
2023-03-29T18:55:16.701Z,6.96
2023-03-29T18:57:44.648Z,6.90
2023-03-29T19:00:13.349Z,6.85
2023-03-29T19:02:42.885Z,6.64
2023-03-29T19:05:11.310Z,6.67
2023-03-29T19:07:39.248Z,6.58
2023-03-29T19:10:09.261Z,6.54
2023-03-29T19:12:37.128Z,6.68
2023-03-29T19:15:05.761Z,6.68
2023-03-29T19:17:33.736Z,6.56
2023-03-29T19:20:04.854Z,6.55
2023-03-29T19:22:33.958Z,6.40
2023-03-29T19:25:02.002Z,6.42
2023-03-29T19:27:29.928Z,6.61
2023-03-29T19:29:57.971Z,6.68
2023-03-29T19:32:25.961Z,6.41
2023-03-29T19:34:53.805Z,6.26
2023-03-29T19:37:23.101Z,6.60
2023-03-29T19:39:51.611Z,6.67
2023-03-29T19:42:19.488Z,6.66
2023-03-29T19:44:47.430Z,6.45
2023-03-29T19:47:15.708Z,6.48
2023-03-29T19:49:46.170Z,6.52
2023-03-29T19:52:14.245Z,6.57
2023-03-29T19:54:44.257Z,6.62
2023-03-29T19:57:12.201Z,6.66
2023-03-29T19:59:40.750Z,6.47
2023-03-29T20:02:10.965Z,6.40
2023-03-29T20:04:39.714Z,6.42
2023-03-29T20:07:08.058Z,6.29
2023-03-29T20:09:35.945Z,6.32
2023-03-29T20:12:05.836Z,6.27
2023-03-29T20:14:34.250Z,6.14
2023-03-29T20:17:02.340Z,6.13
2023-03-29T20:19:30.252Z,6.04
2023-03-29T20:21:58.948Z,5.93
2023-03-29T20:24:27.225Z,5.80
2023-03-29T20:26:55.208Z,5.84
2023-03-29T20:29:24.849Z,5.82
2023-03-29T20:31:52.856Z,5.74
2023-03-29T20:34:20.874Z,5.77
2023-03-29T20:36:48.971Z,5.78
2023-03-29T20:39:18.809Z,5.97
2023-03-29T20:41:47.852Z,5.87
2023-03-29T20:44:17.019Z,5.82
2023-03-29T20:46:54.545Z,5.93
2023-03-29T20:49:26.620Z,5.93
2023-03-29T20:51:58.747Z,5.94
2023-03-29T20:54:27.080Z,5.87
2023-03-29T20:56:56.046Z,5.95
2023-03-29T20:59:24.001Z,5.79
2023-03-29T21:01:53.372Z,5.79
2023-03-29T21:04:21.372Z,5.62
2023-03-29T21:06:50.317Z,5.55
2023-03-29T21:09:19.197Z,5.69
2023-03-29T21:11:47.110Z,5.70
2023-03-29T21:14:19.577Z,5.82
2023-03-29T21:16:47.659Z,5.59
2023-03-29T21:19:17.540Z,5.60
2023-03-29T21:21:47.562Z,5.83
2023-03-29T21:24:15.649Z,5.62
2023-03-29T21:26:43.637Z,5.77
2023-03-29T21:29:11.730Z,5.68
2023-03-29T21:31:39.800Z,5.71
2023-03-29T21:34:07.873Z,5.78
2023-03-29T21:36:37.242Z,5.62
2023-03-29T21:39:05.805Z,5.73
2023-03-29T21:41:33.977Z,5.71
2023-03-29T21:44:01.939Z,5.60
2023-03-29T21:46:29.913Z,5.46
2023-03-29T21:48:58.059Z,5.24
2023-03-29T21:51:26.253Z,5.38
2023-03-29T21:53:55.756Z,5.06
2023-03-29T21:56:23.694Z,4.95
2023-03-29T21:58:51.572Z,4.87
2023-03-29T22:01:19.562Z,4.85
2023-03-29T22:03:47.670Z,4.89
2023-03-29T22:06:15.892Z,4.95
2023-03-29T22:08:46.812Z,4.71
2023-03-29T22:11:17.440Z,4.46
2023-03-29T22:13:45.608Z,4.26
2023-03-29T22:16:16.854Z,4.27
2023-03-29T22:18:46.955Z,4.21
2023-03-29T22:21:17.543Z,4.07
2023-03-29T22:23:47.561Z,4.10
2023-03-29T22:26:18.607Z,4.04
2023-03-29T22:28:46.834Z,4.26
2023-03-29T22:31:17.077Z,4.32
2023-03-29T22:33:45.233Z,4.41
2023-03-29T22:36:15.665Z,4.61
2023-03-29T22:38:43.805Z,4.54
2023-03-29T22:41:12.251Z,4.54
2023-03-29T22:43:42.363Z,4.56
2023-03-29T22:46:13.443Z,4.53
2023-03-29T22:48:41.520Z,4.31
2023-03-29T22:51:09.692Z,4.35
2023-03-29T22:53:38.266Z,4.26
2023-03-29T22:56:07.589Z,4.07
2023-03-29T22:58:35.522Z,4.16
2023-03-29T23:01:05.434Z,4.28
2023-03-29T23:03:33.732Z,4.38
2023-03-29T23:06:03.334Z,4.12
2023-03-29T23:08:32.538Z,4.34
2023-03-29T23:11:00.743Z,4.23
2023-03-29T23:13:29.524Z,4.27
2023-03-29T23:15:59.911Z,4.34
2023-03-29T23:18:30.715Z,4.06
2023-03-29T23:21:00.302Z,4.23
2023-03-29T23:23:29.245Z,4.31
2023-03-29T23:25:57.919Z,4.03
2023-03-29T23:28:27.591Z,3.81
2023-03-29T23:30:57.002Z,3.96
2023-03-29T23:33:26.587Z,3.60
2023-03-29T23:35:55.933Z,3.86
2023-03-29T23:38:24.226Z,3.87
2023-03-29T23:40:59.129Z,3.80
2023-03-29T23:43:32.737Z,3.84
2023-03-29T23:46:02.431Z,3.99
2023-03-29T23:48:31.611Z,3.97
2023-03-29T23:51:01.789Z,4.09
2023-03-29T23:53:30.515Z,4.12
2023-03-29T23:56:00.375Z,3.95
2023-03-29T23:58:28.599Z,3.87
